createdAt,value
2022-12-13T00:02:21.323Z,57.31
2022-12-13T00:05:45.146Z,55.60
2022-12-13T00:09:08.084Z,52.77
2022-12-13T00:12:29.865Z,51.72
2022-12-13T00:16:05.180Z,51.72
2022-12-13T00:19:27.337Z,53.06
2022-12-13T00:22:52.606Z,54.39
2022-12-13T00:26:19.406Z,52.10
2022-12-13T00:29:41.358Z,51.74
2022-12-13T00:33:03.414Z,51.13
2022-12-13T00:36:25.808Z,52.98
2022-12-13T00:39:47.599Z,56.29
2022-12-13T00:43:09.369Z,56.79
2022-12-13T00:46:32.054Z,57.46
2022-12-13T00:49:53.963Z,57.22
2022-12-13T00:53:15.904Z,55.07
2022-12-13T00:56:38.294Z,52.01
2022-12-13T01:00:00.172Z,54.00
2022-12-13T01:03:25.305Z,52.13
2022-12-13T01:06:49.773Z,56.81
2022-12-13T01:10:12.676Z,51.91
2022-12-13T01:13:36.338Z,52.32
2022-12-13T01:16:58.225Z,51.45
2022-12-13T01:20:20.173Z,54.44
2022-12-13T01:23:43.809Z,55.11
2022-12-13T01:27:05.689Z,52.65
2022-12-13T01:30:27.544Z,51.12
2022-12-13T01:33:50.087Z,50.91
2022-12-13T01:37:11.832Z,49.88
2022-12-13T01:40:38.449Z,51.15
2022-12-13T01:44:06.535Z,51.36
2022-12-13T01:47:50.698Z,50.34
2022-12-13T01:51:17.505Z,49.80
2022-12-13T01:54:47.017Z,49.90
2022-12-13T01:58:09.805Z,49.56
2022-12-13T02:01:32.110Z,49.50
2022-12-13T02:05:08.704Z,49.29
2022-12-13T02:08:31.713Z,49.75
2022-12-13T02:11:57.991Z,49.54
2022-12-13T02:15:21.179Z,50.00
2022-12-13T02:19:22.909Z,49.97
2022-12-13T02:22:55.094Z,49.25
2022-12-13T02:26:51.986Z,48.53
2022-12-13T02:30:33.534Z,49.27
2022-12-13T02:34:18.541Z,49.49
2022-12-13T02:38:04.157Z,49.16
2022-12-13T02:41:41.604Z,49.15
2022-12-13T02:45:20.906Z,49.84
2022-12-13T02:48:45.765Z,50.16
2022-12-13T02:52:12.611Z,49.69
2022-12-13T02:55:39.145Z,49.85
2022-12-13T02:59:11.456Z,49.85
2022-12-13T03:02:49.361Z,50.90
2022-12-13T03:06:41.295Z,49.53
2022-12-13T03:10:26.021Z,50.36
2022-12-13T03:14:00.280Z,50.29
2022-12-13T03:17:26.113Z,50.46
2022-12-13T03:20:57.601Z,50.06
2022-12-13T03:24:21.662Z,50.37
2022-12-13T03:27:43.692Z,50.38
2022-12-13T03:31:06.859Z,50.46
2022-12-13T03:34:43.581Z,50.05
2022-12-13T03:38:06.935Z,50.05
2022-12-13T03:41:32.110Z,49.90
2022-12-13T03:44:53.908Z,50.14
2022-12-13T03:48:22.394Z,50.09
2022-12-13T03:51:45.572Z,50.25
2022-12-13T03:55:07.965Z,50.27
2022-12-13T03:58:35.263Z,50.08
2022-12-13T04:01:59.058Z,49.39
2022-12-13T04:05:20.928Z,48.78
2022-12-13T04:08:42.832Z,48.94
2022-12-13T04:12:42.164Z,48.61
2022-12-13T04:16:07.688Z,48.81
2022-12-13T04:19:29.536Z,48.57
2022-12-13T04:22:51.404Z,48.10
2022-12-13T04:26:14.029Z,50.27
2022-12-13T04:29:36.087Z,47.66
2022-12-13T04:32:57.965Z,54.60
2022-12-13T04:36:31.622Z,57.60
2022-12-13T04:39:54.244Z,58.45
2022-12-13T04:43:22.930Z,49.89
2022-12-13T04:46:44.794Z,48.43
2022-12-13T04:50:07.124Z,48.01
2022-12-13T04:53:30.140Z,48.06
2022-12-13T04:56:51.931Z,48.15
2022-12-13T05:00:14.900Z,47.81
2022-12-13T05:03:37.523Z,47.70
2022-12-13T05:06:59.399Z,47.89
2022-12-13T05:10:35.730Z,47.98
2022-12-13T05:13:59.805Z,47.84
2022-12-13T05:17:22.173Z,47.48
2022-12-13T05:20:44.051Z,47.23
2022-12-13T05:24:06.920Z,46.95
2022-12-13T05:27:28.753Z,51.07
2022-12-13T05:30:50.470Z,56.63
2022-12-13T05:34:12.392Z,48.98
2022-12-13T05:37:35.667Z,47.90
2022-12-13T05:40:58.662Z,47.29
2022-12-13T05:44:20.557Z,47.34
2022-12-13T05:47:42.319Z,47.30
2022-12-13T05:51:10.945Z,48.02
2022-12-13T05:54:33.636Z,47.20
2022-12-13T05:57:55.431Z,47.18
2022-12-13T06:01:24.400Z,46.72
2022-12-13T06:04:46.301Z,45.83
2022-12-13T06:08:24.717Z,45.66
2022-12-13T06:11:48.275Z,45.29
2022-12-13T06:15:12.500Z,44.64
2022-12-13T06:18:44.545Z,44.40
2022-12-13T06:22:06.358Z,44.23
2022-12-13T06:25:30.796Z,44.25
2022-12-13T06:28:53.896Z,43.91
2022-12-13T06:32:16.082Z,43.98
2022-12-13T06:35:41.493Z,44.38
2022-12-13T06:39:05.805Z,44.56
2022-12-13T06:42:27.681Z,44.64
2022-12-13T06:45:50.054Z,45.06
2022-12-13T06:49:11.825Z,45.29
2022-12-13T06:52:34.119Z,45.40
2022-12-13T06:55:56.592Z,45.46
2022-12-13T06:59:18.373Z,44.96
2022-12-13T07:02:40.297Z,45.49
2022-12-13T07:06:12.375Z,45.69
2022-12-13T07:09:34.123Z,45.60
2022-12-13T07:12:56.455Z,45.24
2022-12-13T07:16:19.432Z,45.70
2022-12-13T07:19:41.224Z,45.27
2022-12-13T07:23:03.037Z,45.03
2022-12-13T07:26:25.441Z,45.24
2022-12-13T07:29:48.222Z,44.76
2022-12-13T07:33:10.486Z,44.71
2022-12-13T07:36:32.458Z,45.15
2022-12-13T07:39:59.430Z,44.97
2022-12-13T07:43:25.412Z,45.62
2022-12-13T07:46:47.316Z,45.98
2022-12-13T07:50:23.965Z,46.06
2022-12-13T07:53:47.164Z,46.05
2022-12-13T07:57:09.036Z,46.09
2022-12-13T08:00:31.358Z,45.82
2022-12-13T08:03:54.858Z,46.05
2022-12-13T08:07:16.992Z,45.83
2022-12-13T08:10:39.398Z,45.99
2022-12-13T08:14:01.289Z,46.10
2022-12-13T08:17:24.333Z,45.90
2022-12-13T08:20:46.090Z,45.85
2022-12-13T08:24:13.947Z,45.60
2022-12-13T08:27:37.509Z,45.39
2022-12-13T08:31:12.244Z,45.72
2022-12-13T08:34:34.515Z,45.96
2022-12-13T08:37:56.280Z,45.75
2022-12-13T08:41:23.439Z,45.98
2022-12-13T08:44:50.822Z,45.80
2022-12-13T08:48:14.238Z,45.70
2022-12-13T08:51:36.517Z,45.46
2022-12-13T08:54:58.323Z,45.58
2022-12-13T08:58:20.151Z,45.56
2022-12-13T09:01:41.988Z,45.62
2022-12-13T09:05:04.621Z,45.72
2022-12-13T09:08:26.535Z,45.46
2022-12-13T09:11:59.409Z,45.63
2022-12-13T09:15:23.095Z,45.61
2022-12-13T09:18:46.381Z,45.61
2022-12-13T09:22:17.819Z,46.36
2022-12-13T09:26:05.773Z,47.13
2022-12-13T09:29:28.053Z,46.22
2022-12-13T09:32:50.468Z,47.13
2022-12-13T09:36:16.739Z,46.62
2022-12-13T09:39:38.661Z,47.06
2022-12-13T09:43:12.812Z,46.98
2022-12-13T09:46:44.178Z,46.95
2022-12-13T09:50:38.190Z,47.10
2022-12-13T09:54:01.912Z,46.90
2022-12-13T09:57:32.540Z,46.90
2022-12-13T10:00:58.049Z,47.01
2022-12-13T10:04:20.170Z,46.79
2022-12-13T10:07:42.154Z,46.54
2022-12-13T10:11:04.403Z,46.77
2022-12-13T10:14:43.853Z,46.66
2022-12-13T10:18:09.805Z,46.67
2022-12-13T10:21:40.713Z,46.88
2022-12-13T10:25:06.028Z,46.75
2022-12-13T10:28:33.583Z,46.55
2022-12-13T10:31:55.535Z,46.60
2022-12-13T10:35:38.491Z,46.46
2022-12-13T10:39:03.166Z,46.37
2022-12-13T10:42:32.166Z,46.29
2022-12-13T10:46:01.722Z,46.41
2022-12-13T10:49:29.753Z,46.10
2022-12-13T10:52:54.836Z,45.85
2022-12-13T10:56:22.820Z,46.25
2022-12-13T10:59:49.923Z,46.05
2022-12-13T11:03:32.303Z,46.42
2022-12-13T11:06:54.210Z,46.41
2022-12-13T11:10:29.702Z,47.18
2022-12-13T11:13:55.099Z,46.58
2022-12-13T11:17:30.476Z,46.44
2022-12-13T11:21:01.669Z,46.16
2022-12-13T11:24:32.974Z,46.14
2022-12-13T11:28:26.159Z,46.15
2022-12-13T11:31:56.392Z,46.01
2022-12-13T11:35:58.632Z,45.77
2022-12-13T11:39:37.928Z,45.75
2022-12-13T11:43:26.568Z,45.76
2022-12-13T11:47:00.952Z,45.72
2022-12-13T11:50:40.636Z,45.54
2022-12-13T11:54:14.529Z,45.94
2022-12-13T11:57:51.073Z,45.75
2022-12-13T12:01:38.147Z,45.69
2022-12-13T12:05:08.186Z,45.68
2022-12-13T12:08:53.427Z,45.67
2022-12-13T12:12:33.314Z,45.64
2022-12-13T12:16:35.453Z,45.73
2022-12-13T12:19:59.105Z,45.76
2022-12-13T12:23:52.868Z,45.29
2022-12-13T12:27:33.333Z,45.18
2022-12-13T12:32:07.848Z,44.61
2022-12-13T12:35:54.248Z,44.73
2022-12-13T12:39:43.048Z,44.53
2022-12-13T12:43:40.688Z,44.80
2022-12-13T12:47:57.786Z,44.43
2022-12-13T12:51:57.827Z,44.97
2022-12-13T12:56:14.163Z,44.92
2022-12-13T12:59:44.790Z,44.61
2022-12-13T13:03:23.396Z,44.56
2022-12-13T13:07:01.378Z,45.32
2022-12-13T13:10:26.173Z,45.36
2022-12-13T13:14:06.857Z,45.53
2022-12-13T13:17:28.787Z,45.27
2022-12-13T13:21:29.300Z,45.24
2022-12-13T13:25:20.186Z,45.26
2022-12-13T13:28:42.073Z,44.64
2022-12-13T13:32:11.741Z,44.45
2022-12-13T13:35:37.536Z,45.44
2022-12-13T13:39:01.574Z,45.63
2022-12-13T13:42:32.186Z,45.64
2022-12-13T13:46:14.337Z,44.90
2022-12-13T13:49:49.972Z,45.05
2022-12-13T13:53:40.880Z,44.80
2022-12-13T13:57:52.216Z,45.04
2022-12-13T14:01:59.653Z,45.63
2022-12-13T14:06:02.334Z,45.30
2022-12-13T14:09:42.817Z,45.29
2022-12-13T14:13:58.712Z,45.35
2022-12-13T14:18:23.520Z,45.25
2022-12-13T14:22:27.989Z,45.31
2022-12-13T14:26:27.685Z,45.44
2022-12-13T14:29:58.111Z,45.16
2022-12-13T14:33:24.446Z,45.38
2022-12-13T14:36:59.862Z,44.85
2022-12-13T14:40:47.087Z,45.21
2022-12-13T14:44:24.856Z,45.19
2022-12-13T14:47:46.953Z,45.25
2022-12-13T14:51:28.654Z,45.34
2022-12-13T14:55:00.748Z,45.41
2022-12-13T14:58:22.564Z,45.54
2022-12-13T15:01:54.390Z,45.68
2022-12-13T15:05:28.963Z,45.30
2022-12-13T15:08:51.253Z,45.27
2022-12-13T15:12:24.465Z,44.89
2022-12-13T15:15:57.391Z,44.83
2022-12-13T15:19:30.287Z,45.01
2022-12-13T15:23:14.729Z,45.29
2022-12-13T15:26:47.655Z,45.47
2022-12-13T15:30:14.655Z,45.27
2022-12-13T15:33:47.987Z,45.30
2022-12-13T15:37:31.626Z,45.18
2022-12-13T15:40:53.763Z,45.01
2022-12-13T15:44:28.080Z,45.13
2022-12-13T15:47:52.124Z,45.23
2022-12-13T15:51:28.545Z,45.38
2022-12-13T15:54:59.270Z,45.46
2022-12-13T15:58:36.982Z,45.58
2022-12-13T16:01:59.512Z,45.73
2022-12-13T16:09:02.569Z,45.11
2022-12-13T16:12:35.066Z,44.42
2022-12-13T16:16:29.350Z,44.81
2022-12-13T16:19:59.660Z,43.81
2022-12-13T16:23:27.116Z,45.67
2022-12-13T16:26:50.404Z,46.81
2022-12-13T16:30:51.802Z,44.77
2022-12-13T16:34:14.555Z,44.57
2022-12-13T16:37:40.011Z,44.25
2022-12-13T16:41:10.586Z,43.94
2022-12-13T16:44:38.746Z,43.49
2022-12-13T16:48:01.648Z,43.37
2022-12-13T16:51:23.710Z,43.21
2022-12-13T16:54:45.679Z,43.47
2022-12-13T16:58:12.958Z,43.50
2022-12-13T17:01:34.984Z,43.67
2022-12-13T17:04:57.013Z,42.86
2022-12-13T17:08:18.794Z,42.32
2022-12-13T17:11:41.261Z,42.36
2022-12-13T17:15:04.283Z,41.89
2022-12-13T17:18:26.100Z,41.86
2022-12-13T17:21:48.074Z,41.29
2022-12-13T17:25:11.092Z,41.45
2022-12-13T17:28:33.215Z,41.33
2022-12-13T17:31:55.067Z,41.26
2022-12-13T17:35:18.476Z,41.34
2022-12-13T17:38:46.944Z,41.14
2022-12-13T17:42:09.409Z,41.33
2022-12-13T17:45:32.342Z,41.66
2022-12-13T17:48:54.152Z,41.64
2022-12-13T17:52:16.100Z,41.48
2022-12-13T17:55:39.791Z,41.26
2022-12-13T17:59:01.778Z,40.88
2022-12-13T18:02:23.659Z,41.29
2022-12-13T18:05:54.857Z,41.26
2022-12-13T18:09:16.839Z,41.26
2022-12-13T18:12:38.611Z,41.17
2022-12-13T18:16:09.981Z,41.93
2022-12-13T18:19:32.186Z,42.07
2022-12-13T18:22:53.972Z,42.16
2022-12-13T18:26:17.760Z,42.33
2022-12-13T18:29:42.689Z,42.53
2022-12-13T18:33:17.402Z,42.30
2022-12-13T18:36:42.235Z,42.94
2022-12-13T18:40:08.371Z,42.94
2022-12-13T18:43:30.171Z,43.20
2022-12-13T18:46:52.187Z,42.79
2022-12-13T18:50:14.244Z,42.81
2022-12-13T18:53:38.110Z,42.69
2022-12-13T18:56:59.951Z,43.12
2022-12-13T19:00:24.074Z,42.99
2022-12-13T19:03:48.059Z,43.17
2022-12-13T19:07:09.952Z,42.79
2022-12-13T19:10:31.808Z,43.34
2022-12-13T19:13:54.516Z,42.95
2022-12-13T19:17:16.350Z,42.81
2022-12-13T19:20:38.326Z,43.10
2022-12-13T19:24:01.325Z,43.16
2022-12-13T19:27:23.320Z,43.33
2022-12-13T19:30:46.735Z,43.62
2022-12-13T19:34:08.589Z,43.12
2022-12-13T19:37:30.321Z,43.41
2022-12-13T19:40:52.631Z,43.28
2022-12-13T19:44:14.466Z,42.93
2022-12-13T19:47:36.433Z,42.89
2022-12-13T19:51:04.087Z,44.58
2022-12-13T19:54:26.543Z,42.95
2022-12-13T19:57:48.541Z,42.79
2022-12-13T20:01:11.619Z,42.47
2022-12-13T20:04:33.466Z,42.41
2022-12-13T20:07:57.911Z,42.90
2022-12-13T20:11:23.118Z,43.29
2022-12-13T20:14:44.982Z,43.21
2022-12-13T20:18:06.839Z,43.10
2022-12-13T20:21:29.373Z,43.37
2022-12-13T20:24:51.410Z,43.58
2022-12-13T20:28:16.352Z,43.55
2022-12-13T20:31:40.378Z,43.64
2022-12-13T20:35:02.611Z,43.18
2022-12-13T20:38:24.480Z,43.62
2022-12-13T20:41:46.624Z,43.20
2022-12-13T20:45:09.780Z,43.10
2022-12-13T20:48:40.531Z,43.31
2022-12-13T20:52:02.471Z,43.21
2022-12-13T20:55:26.269Z,43.36
2022-12-13T20:58:48.034Z,43.37
2022-12-13T21:02:13.223Z,43.65
2022-12-13T21:05:35.091Z,43.58
2022-12-13T21:09:03.002Z,43.67
2022-12-13T21:12:24.905Z,43.85
2022-12-13T21:15:46.776Z,43.70
2022-12-13T21:19:12.831Z,43.78
2022-12-13T21:22:34.596Z,43.75
2022-12-13T21:25:56.450Z,43.66
2022-12-13T21:29:19.040Z,43.98
2022-12-13T21:32:40.803Z,44.04
2022-12-13T21:36:17.795Z,43.88
2022-12-13T21:39:39.602Z,44.00
2022-12-13T21:43:01.407Z,43.98
2022-12-13T21:46:47.874Z,44.09
2022-12-13T21:50:10.718Z,43.99
2022-12-13T21:53:33.286Z,44.20
2022-12-13T21:57:13.852Z,44.12
2022-12-13T22:00:36.939Z,44.30
2022-12-13T22:04:02.667Z,44.19
2022-12-13T22:07:33.577Z,44.64
2022-12-13T22:11:19.349Z,44.40
2022-12-13T22:14:43.128Z,44.37
2022-12-13T22:18:05.136Z,44.25
2022-12-13T22:21:27.061Z,44.24
2022-12-13T22:24:53.496Z,44.35
2022-12-13T22:28:16.679Z,44.37
2022-12-13T22:31:39.889Z,44.09
2022-12-13T22:35:01.869Z,44.23
2022-12-13T22:38:23.939Z,44.23
2022-12-13T22:41:47.918Z,44.36
2022-12-13T22:45:10.527Z,44.23
2022-12-13T22:48:32.871Z,44.16
2022-12-13T22:51:54.821Z,44.29
2022-12-13T22:55:16.879Z,44.25
2022-12-13T22:58:40.831Z,44.38
2022-12-13T23:02:03.815Z,43.54
2022-12-13T23:05:27.545Z,44.11
2022-12-13T23:08:56.546Z,44.49
2022-12-13T23:12:36.950Z,44.13
2022-12-13T23:15:58.778Z,44.25
2022-12-13T23:23:02.734Z,44.47
2022-12-13T23:26:28.118Z,44.29
2022-12-13T23:29:50.383Z,44.38
2022-12-13T23:33:12.198Z,44.29
2022-12-13T23:36:34.708Z,44.23
2022-12-13T23:39:56.481Z,44.37
2022-12-13T23:43:18.326Z,44.39
2022-12-13T23:46:40.243Z,44.13
2022-12-13T23:50:02.147Z,44.26
2022-12-13T23:53:24.286Z,44.36
2022-12-13T23:56:47.516Z,44.21
